KRFI

Rusk County Airport

Henderson, Texas, USA
METAR KRFI 220215Z AUTO 00000KT 10SM SCT120 24/21 A2999 RMK AO2 T02380205
Observed Flight Rules
May-22 @ 02:15 UTC (22 minutes ago) Visual Flight Rules
Visibility Clouds
10 miles
  • Scattered at 12,000' AGL
Temperatures Readings
Current 24°C / 75°F
Dewpoint 21°C / 70°F
Humidity 83%
Altimeter 29.99" Hg
Pressure 1016 hPa
Elevation 135
METAR KRFI 220215Z AUTO 00000KT 10SM SCT120 24/21 A2999 RMK AO2 T02380205
Observed Flight Rules
May-22 @ 02:15 UTC
(22 minutes ago)
VFR
Clouds
  • Scattered at 12,000' AGL
Temperature Dewpoint
24°C / 75°F 21°C / 70°F
Humidity Altimeter Pressure
83% 29.99" Hg 1016 hPa